createdAt,value
2019-03-09T00:01:00.227Z,26.93
2019-03-09T00:02:09.257Z,31.75
2019-03-09T00:03:15.929Z,30.15
2019-03-09T00:04:23.268Z,26.10
2019-03-09T00:05:29.511Z,35.40
2019-03-09T00:06:35.958Z,24.12
2019-03-09T00:07:43.269Z,27.32
2019-03-09T00:08:48.978Z,32.65
2019-03-09T00:09:54.760Z,27.05
2019-03-09T00:11:00.548Z,24.75
2019-03-09T00:12:06.418Z,23.73
2019-03-09T00:13:13.696Z,22.17
2019-03-09T00:14:20.658Z,30.82
2019-03-09T00:15:26.538Z,28.80
2019-03-09T00:16:32.278Z,28.02
2019-03-09T00:17:38.154Z,32.67
2019-03-09T00:18:45.129Z,28.17
2019-03-09T00:19:52.269Z,31.77
2019-03-09T00:21:00.700Z,26.55
2019-03-09T00:22:09.118Z,26.82
2019-03-09T00:23:19.158Z,27.55
2019-03-09T00:24:27.768Z,25.55
2019-03-09T00:25:37.508Z,33.35
2019-03-09T00:26:46.949Z,29.12
2019-03-09T00:27:55.159Z,26.90
2019-03-09T00:29:03.279Z,25.43
2019-03-09T00:30:28.579Z,22.30
2019-03-09T00:31:44.329Z,23.75
2019-03-09T00:32:50.839Z,23.85
2019-03-09T00:33:57.913Z,22.05
2019-03-09T00:35:04.219Z,28.52
2019-03-09T00:36:11.029Z,20.68
2019-03-09T00:37:17.182Z,21.82
2019-03-09T00:38:23.043Z,23.38
2019-03-09T00:39:28.779Z,21.95
2019-03-09T00:40:57.000Z,26.05
2019-03-09T00:42:03.000Z,23.85
2019-03-09T00:43:10.920Z,21.97
2019-03-09T00:44:16.979Z,26.48
2019-03-09T00:45:22.819Z,25.12
2019-03-09T00:46:28.597Z,26.82
2019-03-09T00:47:34.307Z,24.55
2019-03-09T00:48:40.157Z,25.35
2019-03-09T00:49:47.480Z,23.55
2019-03-09T00:50:54.449Z,24.82
2019-03-09T00:52:01.802Z,26.52
2019-03-09T00:53:09.540Z,26.45
2019-03-09T00:54:16.800Z,24.37
2019-03-09T00:55:24.349Z,36.05
2019-03-09T00:56:32.751Z,27.70
2019-03-09T00:57:39.399Z,22.65
2019-03-09T00:58:45.970Z,30.52
2019-03-09T00:59:57.441Z,31.57
2019-03-09T01:01:04.230Z,29.92
2019-03-09T01:02:11.390Z,29.55
2019-03-09T01:03:19.852Z,28.65
2019-03-09T01:04:27.119Z,30.70
2019-03-09T01:05:33.638Z,30.90
2019-03-09T01:06:39.920Z,31.95
2019-03-09T01:07:47.151Z,23.42
2019-03-09T01:08:52.879Z,23.45
2019-03-09T01:09:59.700Z,22.22
2019-03-09T01:11:05.505Z,21.50
2019-03-09T01:12:11.372Z,20.35
2019-03-09T01:13:17.314Z,29.27
2019-03-09T01:14:23.198Z,23.65
2019-03-09T01:15:28.930Z,27.13
2019-03-09T01:16:34.840Z,23.92
2019-03-09T01:17:40.738Z,20.23
2019-03-09T01:18:48.703Z,25.62
2019-03-09T01:19:55.144Z,25.80
2019-03-09T01:21:02.310Z,30.57
2019-03-09T01:22:08.405Z,25.97
2019-03-09T01:23:14.880Z,23.10
2019-03-09T01:24:21.321Z,24.50
2019-03-09T01:25:28.121Z,27.75
2019-03-09T01:26:35.042Z,32.67
2019-03-09T01:27:41.864Z,24.15
2019-03-09T01:28:49.081Z,22.42
2019-03-09T01:29:56.141Z,23.95
2019-03-09T01:31:02.629Z,21.42
2019-03-09T01:32:09.370Z,28.42
2019-03-09T01:33:16.431Z,24.87
2019-03-09T01:34:22.971Z,24.23
2019-03-09T01:35:29.910Z,26.17
2019-03-09T01:36:36.441Z,27.32
2019-03-09T01:37:42.441Z,33.60
2019-03-09T01:38:48.332Z,33.90
2019-03-09T01:39:54.401Z,23.98
2019-03-09T01:41:00.139Z,32.95
2019-03-09T01:42:05.933Z,26.52
2019-03-09T01:43:11.781Z,26.37
2019-03-09T01:44:17.541Z,29.23
2019-03-09T01:45:23.405Z,25.40
2019-03-09T01:46:29.221Z,29.00
2019-03-09T01:47:35.219Z,24.45
2019-03-09T01:48:41.866Z,21.37
2019-03-09T01:49:48.434Z,23.57
2019-03-09T01:50:55.040Z,23.57
2019-03-09T01:52:01.921Z,21.87
2019-03-09T01:53:08.912Z,21.85
2019-03-09T01:54:15.892Z,35.43
2019-03-09T01:55:22.461Z,23.12
2019-03-09T01:56:29.071Z,25.52
2019-03-09T01:57:35.673Z,31.40
2019-03-09T01:58:42.633Z,27.40
2019-03-09T01:59:49.582Z,33.65
2019-03-09T02:00:55.950Z,27.22
2019-03-09T02:02:03.111Z,27.00
2019-03-09T02:03:10.722Z,24.98
2019-03-09T02:04:17.572Z,25.20
2019-03-09T02:05:24.491Z,23.15
2019-03-09T02:06:30.714Z,24.90
2019-03-09T02:07:36.765Z,24.10
2019-03-09T02:08:42.603Z,32.25
2019-03-09T02:09:48.541Z,22.70
2019-03-09T02:10:54.392Z,24.02
2019-03-09T02:12:00.168Z,27.82
2019-03-09T02:13:06.102Z,21.30
2019-03-09T02:14:12.012Z,28.52
2019-03-09T02:15:17.831Z,27.05
2019-03-09T02:16:25.062Z,20.52
2019-03-09T02:17:30.992Z,24.72
2019-03-09T02:18:37.481Z,27.07
2019-03-09T02:19:44.852Z,27.32
2019-03-09T02:20:51.482Z,24.57
2019-03-09T02:21:58.084Z,33.53
2019-03-09T02:23:04.712Z,32.28
2019-03-09T02:24:12.372Z,23.25
2019-03-09T02:25:18.891Z,25.23
2019-03-09T02:26:25.102Z,23.45
2019-03-09T02:27:32.752Z,28.98
2019-03-09T02:28:39.672Z,24.10
2019-03-09T02:29:45.783Z,23.10
2019-03-09T02:30:52.413Z,21.60
2019-03-09T02:31:58.844Z,21.35
2019-03-09T02:33:06.712Z,23.57
2019-03-09T02:34:13.613Z,24.55
2019-03-09T02:35:20.713Z,25.40
2019-03-09T02:36:27.943Z,21.97
2019-03-09T02:37:33.945Z,23.95
2019-03-09T02:38:41.378Z,24.77
2019-03-09T02:39:51.304Z,28.17
2019-03-09T02:40:57.253Z,28.87
2019-03-09T02:42:03.066Z,27.17
2019-03-09T02:43:08.841Z,27.13
2019-03-09T02:44:14.678Z,29.18
2019-03-09T02:45:27.188Z,19.98
2019-03-09T02:46:34.154Z,28.47
2019-03-09T02:47:39.944Z,24.15
2019-03-09T02:48:46.482Z,23.77
2019-03-09T02:49:53.474Z,23.18
2019-03-09T02:51:01.472Z,20.57
2019-03-09T02:52:08.483Z,23.22
2019-03-09T02:53:15.484Z,22.45
2019-03-09T02:54:23.523Z,27.40
2019-03-09T02:55:30.124Z,19.55
2019-03-09T02:56:37.555Z,21.42
2019-03-09T02:57:44.052Z,20.92
2019-03-09T02:58:50.447Z,25.17
2019-03-09T02:59:57.094Z,27.30
2019-03-09T03:01:11.843Z,22.95
2019-03-09T03:02:26.644Z,25.40
2019-03-09T03:03:34.921Z,24.02
2019-03-09T03:04:41.504Z,29.45
2019-03-09T03:05:48.395Z,24.57
2019-03-09T03:06:55.135Z,25.48
2019-03-09T03:08:03.125Z,28.85
2019-03-09T03:09:08.959Z,30.72
2019-03-09T03:10:17.864Z,26.45
2019-03-09T03:11:23.745Z,21.93
2019-03-09T03:12:29.586Z,23.30
2019-03-09T03:13:35.344Z,27.82
2019-03-09T03:14:41.120Z,25.43
2019-03-09T03:15:46.918Z,26.75
2019-03-09T03:16:52.874Z,28.23
2019-03-09T03:18:00.396Z,24.60
2019-03-09T03:19:07.604Z,26.50
2019-03-09T03:20:15.564Z,28.75
2019-03-09T03:21:22.612Z,26.85
2019-03-09T03:22:29.449Z,30.08
2019-03-09T03:23:37.205Z,29.10
2019-03-09T03:24:44.002Z,26.57
2019-03-09T03:25:51.406Z,31.60
2019-03-09T03:26:58.274Z,26.48
2019-03-09T03:28:05.086Z,30.52
2019-03-09T03:29:11.926Z,33.55
2019-03-09T03:30:19.096Z,30.62
2019-03-09T03:31:26.340Z,24.05
2019-03-09T03:32:35.140Z,26.40
2019-03-09T03:33:42.020Z,32.15
2019-03-09T03:34:48.887Z,29.57
2019-03-09T03:35:54.906Z,26.62
2019-03-09T03:37:01.379Z,26.82
2019-03-09T03:38:07.461Z,24.40
2019-03-09T03:39:13.307Z,26.87
2019-03-09T03:40:19.065Z,26.07
2019-03-09T03:41:24.840Z,27.37
2019-03-09T03:42:30.694Z,34.48
2019-03-09T03:43:36.576Z,29.85
2019-03-09T03:44:45.502Z,26.55
2019-03-09T03:45:51.356Z,25.82
2019-03-09T03:46:58.401Z,29.27
2019-03-09T03:48:04.276Z,23.47
2019-03-09T03:49:11.254Z,29.40
2019-03-09T03:50:17.837Z,28.17
2019-03-09T03:51:25.166Z,26.40
2019-03-09T03:52:32.085Z,26.42
2019-03-09T03:53:59.377Z,22.90
2019-03-09T03:55:09.086Z,27.27
2019-03-09T03:56:16.154Z,24.67
2019-03-09T03:57:23.406Z,31.10
2019-03-09T03:58:30.479Z,23.40
2019-03-09T03:59:38.837Z,29.32
2019-03-09T04:00:45.777Z,25.50
2019-03-09T04:01:51.955Z,29.07
2019-03-09T04:02:58.247Z,23.15
2019-03-09T04:04:05.085Z,26.07
2019-03-09T04:05:11.866Z,26.95
2019-03-09T04:06:18.824Z,26.50
2019-03-09T04:07:26.398Z,24.50
2019-03-09T04:08:32.220Z,24.10
2019-03-09T04:09:38.021Z,26.33
2019-03-09T04:10:43.967Z,25.30
2019-03-09T04:11:49.838Z,27.00
2019-03-09T04:12:57.107Z,28.15
2019-03-09T04:14:02.992Z,27.40
2019-03-09T04:15:08.796Z,25.40
2019-03-09T04:16:14.692Z,22.82
2019-03-09T04:17:22.196Z,23.62
2019-03-09T04:18:29.497Z,28.77
2019-03-09T04:19:35.809Z,23.18
2019-03-09T04:20:42.428Z,27.22
2019-03-09T04:21:49.327Z,22.93
2019-03-09T04:22:56.598Z,19.82
2019-03-09T04:24:05.869Z,25.05
2019-03-09T04:25:13.526Z,25.35
2019-03-09T04:26:20.600Z,24.52
2019-03-09T04:27:29.318Z,20.85
2019-03-09T04:28:37.846Z,23.80
2019-03-09T04:29:44.428Z,23.70
2019-03-09T04:30:51.078Z,21.68
2019-03-09T04:31:58.431Z,25.80
2019-03-09T04:33:05.918Z,32.48
2019-03-09T04:34:12.324Z,24.43
2019-03-09T04:35:18.895Z,24.90
2019-03-09T04:36:25.927Z,20.43
2019-03-09T04:37:32.087Z,29.20
2019-03-09T04:38:37.888Z,29.75
2019-03-09T04:39:43.860Z,22.37
2019-03-09T04:40:49.627Z,24.30
2019-03-09T04:41:55.688Z,24.87
2019-03-09T04:43:01.514Z,24.40
2019-03-09T04:44:07.347Z,23.67
2019-03-09T04:45:14.047Z,21.80
2019-03-09T04:46:19.857Z,20.65
2019-03-09T04:47:25.637Z,22.70
2019-03-09T04:48:31.516Z,23.92
2019-03-09T04:49:40.237Z,25.10
2019-03-09T04:50:47.018Z,24.35
2019-03-09T04:51:53.885Z,24.10
2019-03-09T04:53:02.109Z,20.62
2019-03-09T04:54:10.138Z,22.48
2019-03-09T04:55:16.927Z,23.18
2019-03-09T04:56:24.518Z,24.10
2019-03-09T04:57:30.997Z,20.45
2019-03-09T04:58:38.146Z,22.27
2019-03-09T04:59:45.488Z,22.93
2019-03-09T05:00:52.046Z,22.95
2019-03-09T05:01:58.940Z,20.72
2019-03-09T05:03:05.692Z,25.12
2019-03-09T05:04:28.970Z,19.27
2019-03-09T05:05:35.808Z,24.05
2019-03-09T05:06:42.717Z,20.48
2019-03-09T05:07:56.211Z,23.50
2019-03-09T05:09:15.679Z,20.75
2019-03-09T05:10:37.617Z,24.35
2019-03-09T05:11:43.349Z,22.80
2019-03-09T05:12:59.718Z,25.35
2019-03-09T05:14:05.476Z,28.98
2019-03-09T05:15:14.548Z,27.42
2019-03-09T05:16:20.369Z,21.65
2019-03-09T05:17:26.237Z,20.75
2019-03-09T05:18:33.666Z,18.55
2019-03-09T05:19:40.759Z,23.35
2019-03-09T05:20:48.218Z,22.10
2019-03-09T05:21:54.746Z,25.37
2019-03-09T05:23:00.838Z,21.17
2019-03-09T05:24:09.448Z,19.77
2019-03-09T05:25:16.240Z,21.15
2019-03-09T05:26:23.389Z,22.00
2019-03-09T05:27:31.449Z,25.08
2019-03-09T05:28:37.700Z,22.17
2019-03-09T05:29:44.216Z,22.02
2019-03-09T05:30:51.186Z,23.45
2019-03-09T05:31:57.709Z,20.05
2019-03-09T05:33:05.196Z,22.90
2019-03-09T05:34:12.759Z,23.65
2019-03-09T05:35:19.699Z,25.43
2019-03-09T05:36:26.406Z,23.18
2019-03-09T05:37:32.267Z,26.62
2019-03-09T05:38:38.099Z,19.95
2019-03-09T05:39:44.639Z,21.57
2019-03-09T05:41:11.509Z,20.17
2019-03-09T05:42:17.288Z,20.37
2019-03-09T05:43:23.129Z,18.98
2019-03-09T05:44:29.019Z,22.73
2019-03-09T05:45:34.954Z,21.87
2019-03-09T05:46:41.158Z,22.70
2019-03-09T05:47:46.971Z,18.95
2019-03-09T05:48:53.849Z,21.65
2019-03-09T05:50:00.775Z,21.70
2019-03-09T05:51:07.455Z,21.65
2019-03-09T05:52:27.349Z,25.75
2019-03-09T05:53:33.709Z,18.98
2019-03-09T05:54:42.524Z,21.10
2019-03-09T05:55:49.100Z,22.70
2019-03-09T05:56:55.922Z,22.32
2019-03-09T05:58:02.329Z,20.57
2019-03-09T05:59:09.957Z,23.27
2019-03-09T06:00:17.179Z,19.57
2019-03-09T06:01:24.009Z,17.77
2019-03-09T06:02:31.409Z,21.00
2019-03-09T06:03:54.480Z,22.27
2019-03-09T06:05:36.079Z,25.05
2019-03-09T06:06:43.050Z,23.45
2019-03-09T06:07:50.559Z,31.85
2019-03-09T06:08:56.629Z,26.40
2019-03-09T06:10:02.390Z,22.77
2019-03-09T06:11:08.298Z,22.07
2019-03-09T06:12:14.220Z,22.70
2019-03-09T06:13:20.380Z,27.37
2019-03-09T06:14:26.279Z,23.42
2019-03-09T06:15:32.270Z,24.55
2019-03-09T06:16:39.044Z,18.75
2019-03-09T06:17:44.909Z,24.52
2019-03-09T06:18:51.440Z,20.62
2019-03-09T06:20:17.769Z,18.52
2019-03-09T06:21:44.229Z,20.27
2019-03-09T06:23:01.471Z,20.97
2019-03-09T06:24:23.264Z,20.00
2019-03-09T06:25:42.000Z,17.52
2019-03-09T06:26:55.262Z,18.75
2019-03-09T06:28:11.750Z,20.37
2019-03-09T06:29:20.941Z,18.55
2019-03-09T06:30:28.221Z,19.87
2019-03-09T06:31:36.109Z,24.02
2019-03-09T06:33:06.551Z,27.17
2019-03-09T06:34:17.297Z,22.02
2019-03-09T06:35:28.671Z,19.87
2019-03-09T06:36:44.131Z,24.60
2019-03-09T06:38:16.883Z,22.50
2019-03-09T06:39:22.710Z,18.48
2019-03-09T06:40:28.562Z,22.37
2019-03-09T06:41:51.138Z,21.27
2019-03-09T06:42:57.272Z,20.57
2019-03-09T06:44:03.246Z,18.80
2019-03-09T06:45:12.219Z,19.82
2019-03-09T06:46:19.262Z,17.37
2019-03-09T06:47:25.072Z,17.98
2019-03-09T06:48:33.612Z,19.10
2019-03-09T06:49:42.465Z,19.07
2019-03-09T06:50:48.941Z,20.43
2019-03-09T06:51:55.201Z,22.17
2019-03-09T06:53:02.983Z,19.45
2019-03-09T06:54:10.521Z,14.05
2019-03-09T06:55:19.811Z,20.17
2019-03-09T06:56:26.503Z,20.27
2019-03-09T06:57:33.951Z,18.02
2019-03-09T06:58:41.112Z,18.57
2019-03-09T06:59:47.641Z,18.37
2019-03-09T07:00:56.292Z,18.92
2019-03-09T07:02:02.500Z,19.32
2019-03-09T07:03:11.101Z,16.90
2019-03-09T07:04:17.652Z,17.10
2019-03-09T07:05:24.491Z,19.00
2019-03-09T07:06:31.242Z,15.53
2019-03-09T07:07:38.363Z,16.12
2019-03-09T07:08:45.853Z,15.15
2019-03-09T07:09:51.667Z,15.03
2019-03-09T07:10:57.472Z,14.07
2019-03-09T07:12:03.286Z,17.23
2019-03-09T07:13:09.283Z,14.87
2019-03-09T07:14:55.595Z,15.50
2019-03-09T07:16:02.625Z,19.10
2019-03-09T07:17:08.753Z,15.93
2019-03-09T07:18:17.423Z,20.30
2019-03-09T07:19:24.012Z,16.60
2019-03-09T07:20:31.234Z,22.05
2019-03-09T07:21:38.404Z,17.07
2019-03-09T07:22:46.792Z,20.75
2019-03-09T07:23:54.526Z,17.60
2019-03-09T07:25:01.405Z,17.07
2019-03-09T07:26:09.315Z,16.30
2019-03-09T07:27:17.103Z,15.68
2019-03-09T07:28:24.242Z,14.78
2019-03-09T07:29:31.215Z,17.87
2019-03-09T07:30:38.052Z,17.65
2019-03-09T07:31:45.733Z,15.23
2019-03-09T07:32:52.354Z,17.92
2019-03-09T07:34:25.385Z,19.27
2019-03-09T07:35:32.302Z,17.95
2019-03-09T07:36:39.542Z,19.03
2019-03-09T07:37:45.332Z,15.73
2019-03-09T07:38:51.332Z,20.70
2019-03-09T07:39:57.114Z,16.93
2019-03-09T07:41:03.198Z,15.72
2019-03-09T07:42:10.351Z,16.90
2019-03-09T07:43:16.282Z,18.73
2019-03-09T07:44:22.143Z,14.13
2019-03-09T07:45:27.933Z,14.63
2019-03-09T07:46:35.318Z,17.37
2019-03-09T07:47:41.191Z,16.13
2019-03-09T07:48:48.301Z,17.53
2019-03-09T07:49:56.572Z,16.33
2019-03-09T07:51:03.662Z,19.33
2019-03-09T07:52:35.854Z,19.13
2019-03-09T07:53:42.802Z,19.23
2019-03-09T07:54:52.179Z,17.93
2019-03-09T07:55:59.566Z,17.20
2019-03-09T07:57:05.943Z,17.93
2019-03-09T07:58:12.431Z,17.23
2019-03-09T07:59:20.724Z,20.60
2019-03-09T08:00:28.215Z,19.37
2019-03-09T08:01:39.503Z,17.20
2019-03-09T08:02:46.214Z,21.13
2019-03-09T08:03:56.043Z,20.33
2019-03-09T08:05:02.433Z,18.95
2019-03-09T08:06:09.325Z,17.10
2019-03-09T08:07:15.060Z,15.72
2019-03-09T08:08:20.873Z,18.97
2019-03-09T08:09:28.124Z,15.68
2019-03-09T08:10:34.028Z,16.47
2019-03-09T08:11:40.027Z,15.32
2019-03-09T08:12:45.871Z,17.53
2019-03-09T08:13:51.872Z,17.03
2019-03-09T08:14:57.754Z,15.47
2019-03-09T08:16:03.655Z,17.37
2019-03-09T08:17:09.585Z,17.07
2019-03-09T08:18:15.475Z,21.23
2019-03-09T08:19:22.184Z,17.33
2019-03-09T08:20:29.468Z,16.53
2019-03-09T08:21:36.854Z,18.27
2019-03-09T08:22:43.724Z,17.73
2019-03-09T08:23:51.152Z,14.13
2019-03-09T08:24:57.816Z,17.13
2019-03-09T08:26:05.306Z,16.73
2019-03-09T08:27:12.242Z,17.90
2019-03-09T08:28:19.286Z,17.60
2019-03-09T08:29:26.832Z,16.27
2019-03-09T08:30:34.328Z,18.27
2019-03-09T08:31:41.614Z,19.73
2019-03-09T08:32:51.748Z,17.70
2019-03-09T08:33:59.548Z,14.77
2019-03-09T08:35:09.622Z,16.33
2019-03-09T08:36:16.225Z,17.57
2019-03-09T08:37:23.925Z,18.53
2019-03-09T08:38:30.164Z,19.37
2019-03-09T08:39:35.959Z,17.77
2019-03-09T08:40:43.574Z,22.73
2019-03-09T08:41:49.651Z,18.90
2019-03-09T08:42:55.674Z,17.17
2019-03-09T08:44:01.571Z,15.83
2019-03-09T08:45:12.443Z,19.73
2019-03-09T08:46:18.724Z,13.43
2019-03-09T08:47:35.955Z,18.03
2019-03-09T08:48:42.895Z,16.87
2019-03-09T08:49:49.863Z,20.53
2019-03-09T08:50:56.985Z,21.90
2019-03-09T08:52:03.375Z,17.73
2019-03-09T08:53:09.754Z,15.73
2019-03-09T08:54:16.554Z,17.47
2019-03-09T08:55:23.465Z,21.23
2019-03-09T08:56:30.494Z,18.10
2019-03-09T08:57:38.282Z,17.20
2019-03-09T08:58:45.192Z,19.00
2019-03-09T08:59:52.578Z,18.27
2019-03-09T09:01:00.155Z,21.20
2019-03-09T09:02:08.897Z,19.60
2019-03-09T09:03:16.256Z,20.63
2019-03-09T09:04:24.706Z,16.30
2019-03-09T09:05:33.696Z,17.20
2019-03-09T09:06:41.535Z,16.37
2019-03-09T09:07:47.777Z,17.00
2019-03-09T09:08:53.618Z,18.93
2019-03-09T09:10:01.084Z,17.57
2019-03-09T09:11:07.055Z,18.27
2019-03-09T09:12:13.626Z,15.90
2019-03-09T09:13:19.718Z,14.43
2019-03-09T09:14:28.138Z,16.23
2019-03-09T09:15:38.430Z,18.80
2019-03-09T09:16:46.476Z,22.37
2019-03-09T09:17:52.439Z,16.83
2019-03-09T09:18:59.146Z,18.57
2019-03-09T09:20:10.337Z,16.93
2019-03-09T09:21:17.336Z,21.03
2019-03-09T09:22:23.685Z,24.13
2019-03-09T09:23:32.186Z,17.93
2019-03-09T09:24:39.426Z,21.87
2019-03-09T09:25:47.076Z,19.00
2019-03-09T09:26:54.796Z,17.50
2019-03-09T09:28:02.708Z,23.23
2019-03-09T09:29:09.700Z,17.23
2019-03-09T09:30:32.379Z,15.30
2019-03-09T09:31:39.356Z,16.53
2019-03-09T09:32:46.951Z,17.87
2019-03-09T09:33:53.596Z,16.80
2019-03-09T09:35:00.539Z,19.60
2019-03-09T09:36:10.510Z,14.00
2019-03-09T09:37:17.882Z,20.63
2019-03-09T09:38:23.879Z,17.93
2019-03-09T09:39:30.005Z,14.13
2019-03-09T09:40:35.913Z,17.07
2019-03-09T09:41:42.016Z,17.17
2019-03-09T09:42:48.404Z,14.80
2019-03-09T09:43:54.668Z,16.43
2019-03-09T09:45:02.290Z,16.90
2019-03-09T09:46:09.597Z,14.77
2019-03-09T09:47:15.447Z,14.57
2019-03-09T09:48:22.288Z,16.90
2019-03-09T09:49:28.556Z,19.20
2019-03-09T09:50:36.040Z,15.47
2019-03-09T09:51:42.628Z,14.77
2019-03-09T09:52:50.199Z,17.73
2019-03-09T09:53:57.417Z,17.37
2019-03-09T09:55:05.056Z,13.77
2019-03-09T09:56:12.591Z,16.17
2019-03-09T09:57:19.677Z,13.30
2019-03-09T09:58:27.137Z,18.33
2019-03-09T09:59:34.651Z,21.03
2019-03-09T10:00:42.578Z,17.37
2019-03-09T10:01:48.907Z,21.73
2019-03-09T10:02:55.657Z,25.17
2019-03-09T10:04:02.278Z,19.20
2019-03-09T10:05:12.308Z,18.17
2019-03-09T10:06:20.754Z,21.63
2019-03-09T10:07:26.794Z,20.03
2019-03-09T10:08:33.398Z,15.67
2019-03-09T10:09:39.248Z,18.07
2019-03-09T10:10:45.069Z,16.63
2019-03-09T10:11:50.865Z,15.75
2019-03-09T10:12:56.648Z,15.30
2019-03-09T10:14:02.540Z,16.03
2019-03-09T10:15:13.381Z,17.27
2019-03-09T10:16:19.249Z,16.57
2019-03-09T10:17:25.069Z,25.00
2019-03-09T10:18:31.919Z,18.77
2019-03-09T10:19:38.968Z,15.83
2019-03-09T10:20:46.003Z,21.17
2019-03-09T10:21:54.506Z,22.13
2019-03-09T10:23:04.486Z,22.07
2019-03-09T10:24:10.547Z,16.13
2019-03-09T10:25:17.763Z,18.10
2019-03-09T10:26:26.543Z,18.57
2019-03-09T10:27:34.048Z,16.82
2019-03-09T10:28:40.571Z,21.68
2019-03-09T10:29:47.898Z,16.03
2019-03-09T10:30:55.517Z,18.95
2019-03-09T10:32:01.932Z,22.42
2019-03-09T10:33:09.888Z,15.78
2019-03-09T10:34:15.884Z,13.25
2019-03-09T10:35:22.828Z,15.38
2019-03-09T10:36:29.708Z,15.32
2019-03-09T10:37:35.618Z,14.38
2019-03-09T10:38:42.039Z,18.05
2019-03-09T10:39:47.919Z,16.75
2019-03-09T10:40:53.919Z,13.75
2019-03-09T10:41:59.729Z,15.17
2019-03-09T10:43:05.746Z,11.53
2019-03-09T10:44:11.675Z,14.40
2019-03-09T10:45:22.239Z,13.48
2019-03-09T10:46:28.358Z,16.45
2019-03-09T10:47:35.410Z,12.20
2019-03-09T10:48:41.689Z,10.08
2019-03-09T10:49:48.816Z,13.85
2019-03-09T10:50:55.550Z,13.35
2019-03-09T10:52:04.052Z,12.30
2019-03-09T10:53:10.907Z,17.00
2019-03-09T10:54:17.566Z,13.22
2019-03-09T10:55:33.209Z,14.33
2019-03-09T10:56:40.746Z,11.53
2019-03-09T10:57:47.679Z,11.50
2019-03-09T10:58:54.139Z,12.93
2019-03-09T11:00:01.501Z,11.03
2019-03-09T11:01:09.716Z,11.40
2019-03-09T11:02:16.624Z,9.65
2019-03-09T11:03:23.140Z,11.03
2019-03-09T11:04:30.556Z,11.18
2019-03-09T11:05:38.467Z,8.45
2019-03-09T11:06:45.359Z,9.43
2019-03-09T11:07:54.456Z,10.65
2019-03-09T11:09:00.488Z,11.38
2019-03-09T11:10:11.030Z,10.00
2019-03-09T11:11:17.108Z,10.43
2019-03-09T11:12:22.990Z,10.58
2019-03-09T11:13:28.729Z,8.00
2019-03-09T11:14:34.487Z,8.98
2019-03-09T11:15:40.360Z,7.92
2019-03-09T11:16:46.220Z,8.58
2019-03-09T11:17:52.032Z,10.28
2019-03-09T11:19:00.080Z,13.28
2019-03-09T11:20:11.633Z,9.75
2019-03-09T11:21:18.158Z,7.40
2019-03-09T11:22:25.261Z,9.53
2019-03-09T11:23:34.348Z,6.37
2019-03-09T11:24:40.947Z,7.37
2019-03-09T11:25:47.680Z,8.60
2019-03-09T11:26:54.360Z,9.53
2019-03-09T11:28:15.111Z,9.58
2019-03-09T11:29:21.861Z,9.13
2019-03-09T11:30:30.470Z,10.60
2019-03-09T11:31:37.501Z,9.08
2019-03-09T11:32:44.628Z,8.55
2019-03-09T11:33:50.940Z,10.05
2019-03-09T11:34:58.390Z,13.38
2019-03-09T11:36:06.470Z,9.03
2019-03-09T11:37:13.442Z,8.70
2019-03-09T11:38:19.274Z,8.88
2019-03-09T11:39:25.040Z,10.10
2019-03-09T11:40:32.667Z,7.33
2019-03-09T11:41:38.578Z,8.73
2019-03-09T11:42:44.453Z,9.88
2019-03-09T11:43:50.641Z,10.90
2019-03-09T11:44:57.783Z,8.68
2019-03-09T11:46:08.221Z,8.63
2019-03-09T11:47:17.461Z,10.20
2019-03-09T11:48:24.352Z,18.17
2019-03-09T11:49:33.206Z,11.35
2019-03-09T11:50:40.575Z,8.00
2019-03-09T11:51:48.207Z,8.35
2019-03-09T11:52:57.509Z,8.28
2019-03-09T11:54:05.928Z,11.50
2019-03-09T11:55:15.288Z,9.40
2019-03-09T11:56:22.495Z,8.68
2019-03-09T11:57:29.410Z,7.45
2019-03-09T11:58:38.267Z,7.45
2019-03-09T11:59:45.234Z,11.18
2019-03-09T12:00:52.153Z,10.82
2019-03-09T12:01:59.358Z,10.93
2019-03-09T12:03:08.067Z,8.18
2019-03-09T12:04:17.495Z,12.68
2019-03-09T12:05:25.187Z,9.88
2019-03-09T12:06:32.377Z,10.03
2019-03-09T12:07:39.535Z,9.80
2019-03-09T12:08:46.522Z,8.10
2019-03-09T12:09:53.479Z,13.27
2019-03-09T12:11:00.820Z,8.87
2019-03-09T12:12:07.875Z,7.35
2019-03-09T12:13:15.993Z,8.08
2019-03-09T12:14:23.256Z,9.60
2019-03-09T12:15:30.439Z,26.00
2019-03-09T12:16:39.176Z,11.53
2019-03-09T12:17:47.694Z,10.30
2019-03-09T12:18:55.397Z,10.45
2019-03-09T12:20:02.565Z,7.30
2019-03-09T12:21:09.935Z,7.92
2019-03-09T12:22:17.295Z,7.77
2019-03-09T12:23:26.381Z,10.93
2019-03-09T12:24:33.694Z,10.03
2019-03-09T12:25:41.323Z,11.25
2019-03-09T12:26:50.218Z,15.70
2019-03-09T12:27:57.247Z,10.93
2019-03-09T12:29:04.920Z,8.93
2019-03-09T12:30:21.563Z,9.93
2019-03-09T12:31:28.380Z,11.60
2019-03-09T12:32:36.899Z,9.00
2019-03-09T12:33:44.929Z,9.93
2019-03-09T12:34:52.311Z,8.40
2019-03-09T12:35:59.442Z,8.60
2019-03-09T12:37:06.129Z,12.17
2019-03-09T12:38:13.321Z,11.93
2019-03-09T12:39:20.093Z,9.07
2019-03-09T12:40:28.034Z,9.00
2019-03-09T12:41:36.671Z,11.40
2019-03-09T12:42:44.391Z,8.93
2019-03-09T12:43:52.361Z,7.50
2019-03-09T12:45:00.972Z,9.80
2019-03-09T12:46:10.452Z,8.17
2019-03-09T12:47:19.041Z,9.87
2019-03-09T12:48:25.800Z,9.57
2019-03-09T12:49:34.842Z,15.47
2019-03-09T12:50:42.273Z,10.00
2019-03-09T12:51:49.858Z,8.07
2019-03-09T12:52:56.927Z,12.93
2019-03-09T12:54:24.950Z,9.97
2019-03-09T12:55:33.865Z,8.93
2019-03-09T12:56:41.480Z,15.50
2019-03-09T12:57:50.659Z,21.50
2019-03-09T12:58:57.932Z,12.00
2019-03-09T13:00:05.286Z,14.13
2019-03-09T13:01:12.666Z,7.90
2019-03-09T13:02:21.705Z,9.33
2019-03-09T13:03:28.422Z,5.90
2019-03-09T13:04:35.943Z,9.63
2019-03-09T13:05:43.544Z,8.30
2019-03-09T13:06:50.681Z,13.13
2019-03-09T13:07:57.838Z,16.13
2019-03-09T13:09:05.757Z,24.17
2019-03-09T13:10:13.717Z,22.90
2019-03-09T13:11:20.496Z,9.20
2019-03-09T13:12:28.904Z,23.13
2019-03-09T13:13:35.670Z,12.90
2019-03-09T13:14:43.099Z,7.80
2019-03-09T13:15:49.794Z,6.37
2019-03-09T13:16:56.788Z,19.83
2019-03-09T13:18:04.559Z,13.73
2019-03-09T13:19:11.849Z,10.93
2019-03-09T13:20:20.283Z,6.23
2019-03-09T13:21:29.210Z,11.47
2019-03-09T13:22:36.449Z,10.17
2019-03-09T13:23:44.215Z,8.10
2019-03-09T13:24:51.930Z,11.37
2019-03-09T13:25:59.527Z,9.78
2019-03-09T13:27:07.051Z,8.67
2019-03-09T13:28:14.461Z,6.87
2019-03-09T13:29:21.501Z,8.57
2019-03-09T13:30:28.772Z,14.80
2019-03-09T13:31:35.780Z,16.73
2019-03-09T13:32:43.295Z,8.48
2019-03-09T13:33:51.949Z,12.27
2019-03-09T13:35:00.231Z,11.67
2019-03-09T13:36:08.440Z,9.17
2019-03-09T13:37:16.844Z,21.70
2019-03-09T13:38:24.011Z,18.02
2019-03-09T13:39:31.863Z,11.83
2019-03-09T13:40:39.141Z,11.88
2019-03-09T13:41:46.146Z,16.67
2019-03-09T13:42:53.595Z,11.10
2019-03-09T13:44:01.061Z,11.80
2019-03-09T13:45:13.036Z,17.40
2019-03-09T13:46:20.861Z,16.23
2019-03-09T13:47:28.574Z,10.23
2019-03-09T13:48:36.541Z,10.37
2019-03-09T13:49:43.655Z,11.50
2019-03-09T13:50:50.965Z,11.03
2019-03-09T13:51:58.414Z,15.53
2019-03-09T13:53:06.583Z,12.70
2019-03-09T13:54:13.501Z,17.23
2019-03-09T13:55:19.800Z,14.13
2019-03-09T13:56:28.062Z,17.50
2019-03-09T13:57:36.879Z,13.07
2019-03-09T13:58:43.062Z,11.20
2019-03-09T13:59:49.281Z,20.73
2019-03-09T14:00:55.561Z,32.93
2019-03-09T14:02:02.053Z,25.67
2019-03-09T14:03:09.164Z,10.30
2019-03-09T14:04:15.865Z,18.80
2019-03-09T14:05:22.499Z,14.90
2019-03-09T14:06:29.203Z,15.00
2019-03-09T14:07:35.855Z,11.73
2019-03-09T14:08:42.762Z,10.50
2019-03-09T14:09:49.121Z,19.10
2019-03-09T14:10:56.475Z,15.60
2019-03-09T14:12:02.682Z,10.37
2019-03-09T14:13:09.716Z,22.60
2019-03-09T14:14:16.575Z,22.00
2019-03-09T14:15:23.705Z,13.80
2019-03-09T14:16:30.495Z,10.80
2019-03-09T14:17:48.662Z,10.23
2019-03-09T14:18:56.562Z,17.90
2019-03-09T14:20:03.485Z,7.63
2019-03-09T14:21:10.523Z,10.50
2019-03-09T14:22:17.316Z,16.07
2019-03-09T14:23:25.023Z,14.00
2019-03-09T14:24:32.605Z,16.33
2019-03-09T14:25:40.595Z,18.10
2019-03-09T14:26:48.016Z,9.27
2019-03-09T14:27:55.862Z,11.10
2019-03-09T14:29:02.832Z,15.67
2019-03-09T14:30:17.484Z,16.00
2019-03-09T14:31:24.135Z,13.77
2019-03-09T14:32:30.924Z,7.33
2019-03-09T14:33:37.356Z,9.67
2019-03-09T14:34:44.143Z,13.83
2019-03-09T14:35:50.923Z,14.97
2019-03-09T14:36:58.163Z,13.13